Terminal Aerodrome Forecast
Issued by NWS

Home | Current Version | Previous Version | Text Only | Print | Product List | Glossary On
Versions: 1 2 3 4 5 6 7 8 9 10 11 12 13 14 15
176
FTUS43 KMQT 180520
TAFIWD
TAF
KIWD 180520Z 1806/1906 31012G20KT 4SM -SHRA BR SCT003 BKN010
      TEMPO 1806/1810 BKN003
     FM181000 31010KT 4SM -SHRA BR BKN003
     FM181400 31009KT P6SM BKN008
     FM181600 31009KT P6SM BKN045
     FM181800 31009KT P6SM BKN080
     FM190200 26004KT P6SM SCT200=

USA.gov is the U.S. government's official web portal to all federal, state and local government web resources and services.